Time;durP1;ratioP1;P1;durP2;ratioP2;P2;SDS_P1;SDS_P2;PMS_P1;PMS_P2;Temp;Humidity;BMP_temperature;BMP_pressure;BME280_temperature;BME280_humidity;BME280_pressure;Samples;Min_cycle;Max_cycle;Signal;HPM_P1;HPM_P2
2023/08/18 00:00:00;;;;;;;;;15.00;14.00;;;;;25.03;100.00;98994.50;6286962;27;96853;-67
2023/08/18 00:03:11;;;;;;;;;10.00;10.00;;;;;25.03;100.00;99002.78;6284597;27;96793;-67
2023/08/18 00:06:14;;;;;;;;;14.00;12.00;;;;;25.02;100.00;99011.38;6288192;27;96568;-67
2023/08/18 00:09:17;;;;;;;;;12.75;11.00;;;;;24.97;100.00;99006.00;6269261;27;96891;-67
2023/08/18 00:12:21;;;;;;;;;12.00;12.00;;;;;24.98;100.00;99004.84;6288228;27;97158;-67
2023/08/18 00:15:26;;;;;;;;;11.00;10.50;;;;;25.00;100.00;98997.91;6298590;27;96417;-66
2023/08/18 00:18:29;;;;;;;;;11.00;11.00;;;;;25.03;100.00;99004.72;6270927;27;97044;-67
2023/08/18 00:21:32;;;;;;;;;11.00;11.00;;;;;25.03;100.00;98996.44;6244200;27;96989;-67
2023/08/18 00:24:36;;;;;;;;;13.00;12.00;;;;;25.01;100.00;98998.72;6262825;27;97148;-67
2023/08/18 00:27:40;;;;;;;;;12.67;11.00;;;;;24.97;100.00;98986.69;6277834;27;96368;-67
2023/08/18 00:30:44;;;;;;;;;11.50;9.00;;;;;24.96;100.00;98991.38;6251125;27;96867;-67
2023/08/18 00:33:47;;;;;;;;;9.80;9.00;;;;;24.92;100.00;98993.09;6250764;27;96763;-67
2023/08/18 00:36:50;;;;;;;;;10.00;9.00;;;;;24.85;100.00;98983.63;6286839;27;97049;-67
2023/08/18 00:39:53;;;;;;;;;9.20;8.00;;;;;24.77;100.00;98976.94;6287720;27;96393;-67
2023/08/18 00:42:58;;;;;;;;;9.60;9.00;;;;;24.60;100.00;98983.09;6287356;27;96380;-67
2023/08/18 00:46:01;;;;;;;;;10.00;10.00;;;;;24.54;100.00;98978.00;6263134;27;96719;-67
2023/08/18 00:49:07;;;;;;;;;8.20;8.00;;;;;24.50;100.00;98986.09;6287210;27;96449;-67
2023/08/18 00:52:11;;;;;;;;;10.00;10.00;;;;;24.40;100.00;98982.75;6252532;27;97057;-67
2023/08/18 00:55:15;;;;;;;;;10.00;9.67;;;;;24.33;100.00;98987.88;6287786;27;96499;-67
2023/08/18 00:58:19;;;;;;;;;9.00;8.60;;;;;24.32;100.00;98980.72;6264896;27;96484;-67
2023/08/18 01:01:23;;;;;;;;;10.00;10.00;;;;;24.34;100.00;98975.72;6265968;27;97108;-67
2023/08/18 01:04:28;;;;;;;;;10.40;8.40;;;;;24.36;100.00;98988.06;6270141;27;97510;-66
2023/08/18 01:07:31;;;;;;;;;10.40;9.00;;;;;24.35;100.00;98978.16;6256168;27;96948;-66
2023/08/18 01:10:44;;;;;;;;;8.60;8.60;;;;;24.35;100.00;98985.63;6268360;27;98509;-67
2023/08/18 01:13:55;;;;;;;;;12.20;11.20;;;;;24.31;100.00;98982.66;6270944;27;96358;-67
2023/08/18 01:17:06;;;;;;;;;10.00;10.00;;;;;24.31;100.00;98984.59;6245325;27;96456;-67
2023/08/18 01:20:11;;;;;;;;;11.60;10.00;;;;;24.31;100.00;98981.84;6265535;27;96876;-67
2023/08/18 01:23:17;;;;;;;;;11.00;11.00;;;;;24.31;100.00;98977.16;6243146;27;97409;-67
2023/08/18 01:26:20;;;;;;;;;10.40;10.00;;;;;24.34;100.00;98975.72;6267549;27;96625;-67
2023/08/18 01:29:27;;;;;;;;;12.00;10.20;;;;;24.31;100.00;98977.16;6286603;27;96944;-67
2023/08/18 01:32:36;;;;;;;;;11.00;11.00;;;;;24.30;100.00;98977.47;6257652;27;97452;-67
2023/08/18 01:35:41;;;;;;;;;9.00;9.00;;;;;24.30;100.00;98971.94;6248450;27;96834;-67
2023/08/18 01:38:46;;;;;;;;;9.40;9.40;;;;;24.32;100.00;98976.03;6284911;27;97566;-66
2023/08/18 01:41:50;;;;;;;;;10.00;9.00;;;;;24.29;100.00;98976.63;6267421;27;96783;-67
2023/08/18 01:45:01;;;;;;;;;11.00;11.00;;;;;24.24;100.00;98975.97;6250715;27;97192;-67
2023/08/18 01:48:04;;;;;;;;;9.00;9.00;;;;;24.39;100.00;98987.44;6251306;27;96589;-67
2023/08/18 01:51:07;;;;;;;;;12.00;10.40;;;;;24.46;100.00;98976.81;6285107;27;96452;-67
2023/08/18 01:54:13;;;;;;;;;10.00;8.40;;;;;24.48;100.00;98969.03;6264617;27;97062;-67
2023/08/18 01:57:17;;;;;;;;;11.40;11.00;;;;;24.47;100.00;98967.44;6255411;27;96520;-67
2023/08/18 02:00:21;;;;;;;;;11.50;11.00;;;;;24.48;100.00;98971.00;6233296;27;96877;-67
2023/08/18 02:03:25;;;;;;;;;11.00;10.00;;;;;24.46;100.00;98967.72;6245847;27;99101;-67
2023/08/18 02:06:28;;;;;;;;;11.20;10.20;;;;;24.42;100.00;98972.25;6282196;27;96431;-67
2023/08/18 02:09:32;;;;;;;;;11.40;10.00;;;;;24.35;100.00;98969.09;6260170;27;98458;-67
2023/08/18 02:12:35;;;;;;;;;10.00;9.00;;;;;24.31;100.00;98970.81;6271625;27;96857;-67
2023/08/18 02:15:39;;;;;;;;;9.00;8.80;;;;;24.22;100.00;98978.19;6270360;27;96413;-67
2023/08/18 02:18:42;;;;;;;;;10.00;10.00;;;;;24.10;100.00;98973.19;6271535;27;96683;-67
2023/08/18 02:21:48;;;;;;;;;8.75;8.75;;;;;23.99;100.00;98964.34;6271600;27;96787;-67
2023/08/18 02:24:52;;;;;;;;;10.60;9.00;;;;;23.92;100.00;98963.91;6257961;27;98562;-66
2023/08/18 02:27:56;;;;;;;;;10.00;9.00;;;;;23.90;100.00;98957.88;6270751;27;96698;-67
2023/08/18 02:31:01;;;;;;;;;12.00;11.00;;;;;23.87;100.00;98960.44;6272236;27;97698;-67
2023/08/18 02:34:04;;;;;;;;;10.60;9.00;;;;;23.79;100.00;98945.47;6270904;27;96357;-67
2023/08/18 02:37:07;;;;;;;;;12.00;11.00;;;;;23.85;100.00;98960.75;6265864;27;96672;-68
2023/08/18 02:40:14;;;;;;;;;12.00;11.00;;;;;23.77;100.00;98942.19;6285047;27;96975;-67
2023/08/18 02:43:18;;;;;;;;;12.00;11.60;;;;;23.86;100.00;98958.81;6253947;27;97328;-68
2023/08/18 02:46:22;;;;;;;;;9.00;8.00;;;;;23.84;100.00;98953.63;6269596;27;96682;-68
2023/08/18 02:49:25;;;;;;;;;11.00;10.00;;;;;23.83;100.00;98946.50;6288402;27;96948;-67
2023/08/18 02:52:28;;;;;;;;;9.20;9.00;;;;;23.82;100.00;98944.84;6288912;27;96756;-68
2023/08/18 02:55:34;;;;;;;;;10.40;10.00;;;;;23.82;100.00;98941.28;6245493;27;98432;-68
2023/08/18 02:58:38;;;;;;;;;11.40;10.00;;;;;23.81;100.00;98953.41;6253596;27;97078;-67
2023/08/18 03:01:41;;;;;;;;;9.00;9.00;;;;;23.78;100.00;98956.78;6266233;27;100267;-67
2023/08/18 03:04:44;;;;;;;;;10.00;9.75;;;;;23.77;100.00;98950.47;6261233;27;96588;-67
2023/08/18 03:07:48;;;;;;;;;9.00;9.00;;;;;23.75;100.00;98953.50;6260732;27;96715;-67
2023/08/18 03:10:58;;;;;;;;;8.00;8.00;;;;;23.70;100.00;98939.84;6226236;27;98594;-66
2023/08/18 03:14:01;;;;;;;;;9.40;9.40;;;;;23.70;100.00;98945.34;6255324;27;96761;-67
2023/08/18 03:17:04;;;;;;;;;9.33;8.00;;;;;23.69;100.00;98952.00;6217872;27;97030;-67
2023/08/18 03:20:09;;;;;;;;;9.60;9.00;;;;;23.68;100.00;98946.81;6257905;27;96821;-67
2023/08/18 03:23:14;;;;;;;;;9.00;9.00;;;;;23.65;100.00;98939.94;6240842;27;96296;-67
2023/08/18 03:26:19;;;;;;;;;8.00;8.00;;;;;23.64;100.00;98938.34;6239707;27;96508;-66
2023/08/18 03:29:22;;;;;;;;;11.60;10.80;;;;;23.68;100.00;98946.81;6228062;27;96818;-67
2023/08/18 03:32:26;;;;;;;;;9.25;9.00;;;;;23.68;100.00;98942.09;6227690;27;97065;-67
2023/08/18 03:35:31;;;;;;;;;11.00;10.00;;;;;23.70;100.00;98936.31;6228211;27;96707;-67
2023/08/18 03:38:34;;;;;;;;;8.60;8.60;;;;;23.72;100.00;98937.63;6264229;27;96417;-67
2023/08/18 03:41:39;;;;;;;;;11.00;9.80;;;;;23.72;100.00;98936.81;6244678;27;96713;-67
2023/08/18 03:44:44;;;;;;;;;9.00;9.00;;;;;23.63;100.00;98942.22;6238032;27;97546;-67
2023/08/18 03:47:47;;;;;;;;;9.25;9.00;;;;;23.57;100.00;98945.34;6260006;27;96330;-68
2023/08/18 03:50:50;;;;;;;;;10.00;10.00;;;;;23.48;100.00;98938.94;6253227;27;96478;-68
2023/08/18 03:53:53;;;;;;;;;10.40;9.00;;;;;23.39;100.00;98941.56;6243602;27;96755;-67
2023/08/18 03:56:58;;;;;;;;;12.00;10.00;;;;;23.39;100.00;98943.50;6243300;27;96508;-68
2023/08/18 04:00:01;;;;;;;;;9.50;9.50;;;;;23.33;100.00;98931.75;6252900;27;96693;-68
2023/08/18 04:03:16;;;;;;;;;8.60;8.40;;;;;23.44;100.00;98944.22;6251824;27;96798;-68
2023/08/18 04:06:19;;;;;;;;;10.00;9.25;;;;;23.47;100.00;98949.13;6263936;27;96709;-68
2023/08/18 04:09:23;;;;;;;;;11.00;10.00;;;;;23.47;100.00;98942.81;6267797;27;98564;-68
2023/08/18 04:12:27;;;;;;;;;9.00;7.00;;;;;23.50;100.00;98953.22;6263436;27;96589;-68
2023/08/18 04:15:31;;;;;;;;;12.20;10.60;;;;;23.46;100.00;98943.91;6256437;27;98585;-68
2023/08/18 04:18:35;;;;;;;;;10.00;9.00;;;;;23.44;100.00;98946.97;6269612;27;96435;-68
2023/08/18 04:21:38;;;;;;;;;11.00;10.00;;;;;23.15;100.00;98905.97;6267915;27;96607;-68
2023/08/18 04:24:41;;;;;;;;;12.00;10.00;;;;;23.52;100.00;98956.47;6249376;27;98488;-68
2023/08/18 04:27:46;;;;;;;;;10.80;9.00;;;;;23.54;100.00;98959.75;6284546;27;96491;-68
2023/08/18 04:30:49;;;;;;;;;11.00;10.00;;;;;23.60;100.00;98951.06;6250889;27;97790;-68
2023/08/18 04:34:30;;;;;;;;;8.20;8.00;;;;;23.69;100.00;98956.69;6272143;27;97256;-68
2023/08/18 04:37:33;;;;;;;;;10.00;9.00;;;;;23.76;100.00;98954.34;6287400;27;96618;-68
2023/08/18 04:40:37;;;;;;;;;10.00;10.00;;;;;23.89;100.00;98956.28;6265411;27;97458;-67
2023/08/18 04:43:42;;;;;;;;;13.00;11.00;;;;;23.98;100.00;98968.22;6268702;27;97260;-68
2023/08/18 04:46:45;;;;;;;;;10.50;10.50;;;;;24.10;100.00;98960.22;6286448;27;96454;-68
2023/08/18 04:49:56;;;;;;;;;11.00;10.00;;;;;24.22;100.00;98962.50;6267572;27;96516;-67
2023/08/18 04:52:59;;;;;;;;;10.00;10.00;;;;;24.31;100.00;98965.31;6285464;27;96360;-68
2023/08/18 04:56:03;;;;;;;;;9.40;8.20;;;;;24.41;100.00;98962.34;6265587;27;96550;-68
2023/08/18 04:59:08;;;;;;;;;9.60;9.60;;;;;24.47;100.00;98972.94;6268600;27;96586;-68
2023/08/18 05:02:11;;;;;;;;;10.00;9.60;;;;;24.55;100.00;98969.44;6242848;27;97050;-67
2023/08/18 05:05:15;;;;;;;;;12.00;11.00;;;;;24.65;100.00;98978.59;6254175;27;97077;-68
2023/08/18 05:08:18;;;;;;;;;8.80;8.80;;;;;24.79;100.00;98977.41;6259769;27;96572;-68
2023/08/18 05:11:22;;;;;;;;;9.00;8.20;;;;;24.90;100.00;98970.56;6264930;27;96420;-68
2023/08/18 05:14:26;;;;;;;;;11.00;10.00;;;;;25.07;100.00;98967.09;6261594;27;96806;-68
2023/08/18 05:17:30;;;;;;;;;12.00;11.00;;;;;25.23;100.00;98976.63;6261802;27;96328;-68
2023/08/18 05:20:33;;;;;;;;;11.00;10.60;;;;;25.40;100.00;98973.97;6261798;27;97891;-68
2023/08/18 05:23:36;;;;;;;;;11.00;10.00;;;;;25.45;100.00;98970.25;6255224;27;96444;-68
2023/08/18 05:26:39;;;;;;;;;10.00;9.00;;;;;25.60;100.00;98980.91;6252059;27;96768;-68
2023/08/18 05:29:44;;;;;;;;;9.67;9.00;;;;;25.78;100.00;98979.03;6252276;27;96525;-68
2023/08/18 05:32:47;;;;;;;;;10.00;10.00;;;;;25.97;100.00;98974.06;6225897;27;96686;-68
2023/08/18 05:35:50;;;;;;;;;10.00;10.00;;;;;26.19;100.00;98981.44;6263211;27;96380;-68
2023/08/18 05:38:54;;;;;;;;;11.00;9.80;;;;;26.38;100.00;98972.88;6249911;27;96381;-68
2023/08/18 05:41:57;;;;;;;;;12.00;11.40;;;;;26.56;100.00;98969.00;6247134;27;96882;-68
2023/08/18 05:45:01;;;;;;;;;13.00;12.00;;;;;26.76;100.00;98970.28;6247928;27;96361;-68
2023/08/18 05:48:06;;;;;;;;;12.75;12.00;;;;;26.86;100.00;98958.91;6265734;27;96362;-68
2023/08/18 05:51:09;;;;;;;;;13.00;11.25;;;;;26.99;100.00;98969.81;6265806;27;96530;-68
2023/08/18 05:54:12;;;;;;;;;14.40;13.00;;;;;27.15;100.00;98970.13;6246835;27;98569;-68
2023/08/18 05:57:15;;;;;;;;;12.40;12.00;;;;;27.35;100.00;98969.44;6265734;27;96315;-68
2023/08/18 06:00:21;;;;;;;;;14.20;12.60;;;;;27.39;100.00;98970.38;6264142;27;96582;-68
2023/08/18 06:03:24;;;;;;;;;14.20;13.20;;;;;27.39;100.00;98964.84;6275497;27;96816;-68
2023/08/18 06:06:27;;;;;;;;;13.50;12.50;;;;;27.39;100.00;98970.38;6252049;27;96768;-68
2023/08/18 06:09:30;;;;;;;;;13.00;12.50;;;;;27.47;100.00;98972.31;6276670;27;96508;-68
2023/08/18 06:12:33;;;;;;;;;11.00;11.00;;;;;27.51;100.00;98983.59;6282489;27;96397;-68
2023/08/18 06:15:39;;;;;;;;;14.40;13.40;;;;;27.52;100.00;98974.94;6279990;27;97054;-68
2023/08/18 06:18:42;;;;;;;;;15.00;13.00;;;;;27.74;100.00;98979.41;6255225;27;97118;-68
2023/08/18 06:21:45;;;;;;;;;14.80;14.80;;;;;27.85;100.00;98974.31;6239080;27;96703;-68
2023/08/18 06:24:48;;;;;;;;;13.00;11.50;;;;;28.08;100.00;98974.84;6263383;27;96955;-68
2023/08/18 06:27:51;;;;;;;;;11.75;10.75;;;;;28.36;100.00;98979.59;6281866;27;96165;-67
2023/08/18 06:31:03;;;;;;;;;14.00;13.00;;;;;28.63;100.00;98988.53;6279558;27;96384;-67
2023/08/18 06:34:07;;;;;;;;;12.00;11.00;;;;;28.88;100.00;98986.75;6255054;27;96292;-68
2023/08/18 06:37:11;;;;;;;;;12.00;11.00;;;;;29.02;100.00;98985.31;6243059;27;98521;-69
2023/08/18 06:40:14;;;;;;;;;12.40;11.00;;;;;29.21;100.00;98982.81;6281733;27;97058;-68
2023/08/18 06:43:17;;;;;;;;;13.25;13.00;;;;;29.44;100.00;98980.47;6241455;27;98749;-68
2023/08/18 06:46:22;;;;;;;;;10.00;10.00;;;;;29.59;100.00;98974.25;6272621;27;96454;-68
2023/08/18 06:49:25;;;;;;;;;13.00;12.60;;;;;29.69;100.00;98967.44;6276488;27;96503;-68
2023/08/18 06:52:29;;;;;;;;;12.00;11.25;;;;;29.83;100.00;98972.66;6245976;27;96920;-68
2023/08/18 06:55:32;;;;;;;;;11.60;10.60;;;;;29.98;100.00;98966.44;6278292;27;96402;-68
2023/08/18 06:58:55;;;;;;;;;11.50;11.50;;;;;30.19;100.00;98972.69;6204145;28;98482;-68
2023/08/18 07:02:00;;;;;;;;;14.50;13.50;;;;;30.38;100.00;98970.13;6273088;27;96348;-68
2023/08/18 07:05:05;;;;;;;;;12.40;12.40;;;;;30.45;100.00;98975.88;6278296;27;96408;-68
2023/08/18 07:08:10;;;;;;;;;12.40;11.00;;;;;30.71;100.00;98983.84;6250152;27;97317;-68
2023/08/18 07:11:14;;;;;;;;;11.00;10.00;;;;;31.03;100.00;98986.81;6275900;27;96404;-68
2023/08/18 07:14:17;;;;;;;;;10.00;10.00;;;;;31.25;100.00;98977.88;6236954;27;96797;-68
2023/08/18 07:17:22;;;;;;;;;12.60;10.00;;;;;31.39;100.00;98983.81;6264480;27;97942;-68
2023/08/18 07:20:25;;;;;;;;;12.00;10.60;;;;;31.59;100.00;98985.59;6277452;27;96489;-68
2023/08/18 07:23:28;;;;;;;;;13.00;12.00;;;;;31.74;100.00;98992.34;6248905;27;96398;-68
2023/08/18 07:26:31;;;;;;;;;12.50;12.00;;;;;31.85;100.00;98987.84;6248214;27;98859;-68
2023/08/18 07:29:35;;;;;;;;;13.80;12.00;;;;;31.90;100.00;98983.97;6255798;27;96841;-68
2023/08/18 07:32:40;;;;;;;;;14.60;13.60;;;;;32.02;100.00;98987.47;6280671;27;96373;-68
2023/08/18 07:35:43;;;;;;;;;14.80;13.20;;;;;32.01;100.00;98985.06;6279284;27;96958;-68
2023/08/18 07:38:46;;;;;;;;;12.40;11.40;;;;;32.16;100.00;98978.66;6272663;27;96413;-68
2023/08/18 07:41:49;;;;;;;;;12.00;11.00;;;;;32.45;100.00;98983.72;6237344;27;96801;-68
2023/08/18 07:44:53;;;;;;;;;14.00;13.00;;;;;32.65;100.00;98974.25;6255562;27;96422;-68
2023/08/18 07:47:58;;;;;;;;;10.00;9.60;;;;;32.99;100.00;98985.72;6254380;27;96240;-68
2023/08/18 07:51:02;;;;;;;;;11.00;10.00;;;;;33.13;100.00;98985.22;6261724;27;96962;-68
2023/08/18 07:54:06;;;;;;;;;11.75;9.75;;;;;33.09;100.00;98990.72;6280389;27;96363;-68
2023/08/18 07:57:09;;;;;;;;;9.60;9.60;;;;;33.26;100.00;98992.28;6276072;27;96887;-68
2023/08/18 08:00:16;;;;;;;;;13.00;12.00;;;;;33.23;100.00;99007.00;6255046;27;97066;-68
2023/08/18 08:03:21;;;;;;;;;11.00;10.00;;;;;33.36;100.00;99009.25;6258620;27;96981;-68
2023/08/18 08:06:24;;;;;;;;;10.00;9.00;;;;;33.55;100.00;98999.22;6230047;27;98402;-67
2023/08/18 08:09:27;;;;;;;;;12.40;11.60;;;;;33.79;100.00;99002.50;6263883;27;96458;-68
2023/08/18 08:12:31;;;;;;;;;11.20;10.00;;;;;34.04;100.00;99010.50;6280688;27;96395;-68
2023/08/18 08:15:34;;;;;;;;;9.00;8.20;;;;;34.14;100.00;99010.69;6279917;27;96398;-67
2023/08/18 08:18:41;;;;;;;;;11.20;10.00;;;;;34.01;100.00;99009.28;6267975;27;96459;-68
2023/08/18 08:21:44;;;;;;;;;9.00;8.60;;;;;33.84;100.00;99007.78;6283055;27;96307;-68
2023/08/18 08:24:48;;;;;;;;;12.20;10.20;;;;;33.84;100.00;99012.56;6257284;27;96363;-67
2023/08/18 08:27:55;;;;;;;;;10.40;10.00;;;;;33.91;100.00;99010.72;6275293;27;96285;-67
2023/08/18 08:31:01;;;;;;;;;10.50;10.00;;;;;34.03;100.00;99006.88;6283463;27;96933;-68
2023/08/18 08:34:09;;;;;;;;;11.00;10.40;;;;;34.32;100.00;99003.38;6282730;27;96429;-67
2023/08/18 08:37:12;;;;;;;;;7.40;7.00;;;;;34.64;100.00;98997.47;6237740;28;98383;-67
2023/08/18 08:40:19;;;;;;;;;9.00;8.00;;;;;35.00;100.00;98993.94;6266262;27;96376;-67
2023/08/18 08:43:22;;;;;;;;;10.00;9.00;;;;;35.00;100.00;98993.94;6261136;27;98390;-68
2023/08/18 08:46:25;;;;;;;;;11.00;10.00;;;;;34.93;100.00;98993.06;6285520;27;96758;-67
2023/08/18 08:49:31;;;;;;;;;11.40;10.40;;;;;34.94;100.00;98991.88;6280044;27;97085;-68
2023/08/18 08:52:38;;;;;;;;;10.00;9.40;;;;;34.65;100.00;98971.06;6276568;27;96513;-68
2023/08/18 08:55:49;;;;;;;;;9.40;9.00;;;;;34.88;100.00;98982.19;6257837;27;96675;-67
2023/08/18 08:58:53;;;;;;;;;9.60;9.00;;;;;35.26;100.00;98993.09;6257241;27;96719;-67
2023/08/18 09:01:56;;;;;;;;;10.25;10.00;;;;;35.54;100.00;98984.16;6290963;27;96370;-67
2023/08/18 09:05:01;;;;;;;;;11.00;11.00;;;;;35.63;100.00;98979.03;6256495;27;96396;-67
2023/08/18 09:08:05;;;;;;;;;10.00;9.00;;;;;35.62;100.00;98983.06;6262699;27;96360;-68
2023/08/18 09:11:09;;;;;;;;;11.20;9.60;;;;;35.84;100.00;98986.88;6274052;27;96724;-67
2023/08/18 09:14:13;;;;;;;;;9.00;9.00;;;;;36.17;100.00;98989.59;6274827;27;96482;-67
2023/08/18 09:17:18;;;;;;;;;12.00;11.00;;;;;36.40;100.00;98987.38;6272973;27;96702;-67
2023/08/18 09:20:23;;;;;;;;;10.00;10.00;;;;;36.43;100.00;98986.56;6274213;27;96194;-68
2023/08/18 09:23:28;;;;;;;;;8.40;8.40;;;;;36.59;100.00;98977.84;6276658;27;96400;-67
2023/08/18 09:26:31;;;;;;;;;9.80;9.80;;;;;36.84;100.00;98972.38;6280260;27;96424;-68
2023/08/18 09:29:36;;;;;;;;;10.60;9.60;;;;;36.93;100.00;98978.44;6280873;27;96257;-68
2023/08/18 09:32:40;;;;;;;;;10.80;9.00;;;;;37.10;100.00;98986.16;6254984;27;96937;-68
2023/08/18 09:35:45;;;;;;;;;11.00;10.60;;;;;36.75;100.00;98960.69;6257201;27;96409;-68
2023/08/18 09:38:48;;;;;;;;;10.00;9.40;;;;;36.81;100.00;98973.16;6291530;27;96542;-68
2023/08/18 09:41:53;;;;;;;;;14.00;12.00;;;;;36.68;100.00;98975.50;6238488;27;98702;-68
2023/08/18 09:45:00;;;;;;;;;8.60;8.60;;;;;36.85;100.00;98971.97;6269364;27;96929;-68
2023/08/18 09:48:08;;;;;;;;;11.00;10.75;;;;;36.90;100.00;98977.22;6277450;27;96331;-67
2023/08/18 09:51:13;;;;;;;;;10.00;9.40;;;;;37.04;100.00;98981.28;6264854;27;96878;-68
2023/08/18 09:54:20;;;;;;;;;8.00;8.00;;;;;37.19;100.00;98966.13;6280702;27;96777;-68
2023/08/18 09:57:30;;;;;;;;;10.50;10.00;;;;;37.65;100.00;98985.91;6284311;27;96349;-67
2023/08/18 10:00:34;;;;;;;;;11.50;11.00;;;;;37.88;100.00;98983.50;6270011;27;96414;-68
2023/08/18 10:03:39;;;;;;;;;11.25;10.00;;;;;38.14;100.00;98991.59;6262554;27;97720;-67
2023/08/18 10:06:45;;;;;;;;;10.60;10.00;;;;;38.20;100.00;98972.28;6270540;27;96390;-67
2023/08/18 10:09:48;;;;;;;;;11.60;10.60;;;;;38.33;100.00;98978.28;6286386;27;96610;-68
2023/08/18 10:12:52;;;;;;;;;10.00;10.00;;;;;38.46;100.00;98971.84;6272467;27;96520;-68
2023/08/18 10:15:56;;;;;;;;;9.00;9.00;;;;;38.61;100.00;98972.59;6278056;27;98932;-68
2023/08/18 10:18:59;;;;;;;;;14.60;12.00;;;;;38.72;100.00;98966.94;6269440;27;96377;-68
2023/08/18 10:22:05;;;;;;;;;9.00;8.00;;;;;38.88;100.00;98965.31;6289927;27;96598;-68
2023/08/18 10:25:08;;;;;;;;;9.00;9.00;;;;;38.86;100.00;98970.50;6286052;27;97027;-68
2023/08/18 10:28:17;;;;;;;;;9.00;9.00;;;;;38.90;100.00;98973.38;6283319;27;96412;-68
2023/08/18 10:31:21;;;;;;;;;10.00;10.00;;;;;39.03;100.00;98968.88;6268539;27;96885;-68
2023/08/18 10:34:24;;;;;;;;;10.00;10.00;;;;;39.12;100.00;98966.41;6292049;27;99217;-68
2023/08/18 10:37:30;;;;;;;;;8.20;8.20;;;;;39.29;100.00;98961.88;6281926;27;96858;-68
2023/08/18 10:40:35;;;;;;;;;10.00;9.20;;;;;39.50;100.00;98963.78;6302549;27;96425;-68
2023/08/18 10:43:43;;;;;;;;;12.00;10.80;;;;;39.56;100.00;98964.94;6269756;27;96362;-68
2023/08/18 10:46:46;;;;;;;;;11.00;10.00;;;;;39.08;100.00;98967.63;6279827;27;97256;-68
2023/08/18 10:49:49;;;;;;;;;9.00;8.00;;;;;38.78;100.00;98968.13;6279648;27;97210;-68
2023/08/18 10:52:55;;;;;;;;;11.00;10.00;;;;;38.60;100.00;98962.56;6299495;27;96435;-68
2023/08/18 10:55:59;;;;;;;;;9.00;8.40;;;;;38.75;100.00;98964.13;6300639;27;97075;-68
2023/08/18 10:59:02;;;;;;;;;12.00;11.00;;;;;38.63;100.00;98958.94;6274981;27;96350;-68
2023/08/18 11:02:06;;;;;;;;;11.00;10.00;;;;;38.63;100.00;98958.13;6285196;27;96908;-68
2023/08/18 11:05:09;;;;;;;;;10.60;10.00;;;;;38.85;100.00;98946.38;6263049;27;96442;-68
2023/08/18 11:08:14;;;;;;;;;13.50;12.50;;;;;38.93;100.00;98958.44;6282415;27;96503;-68
2023/08/18 11:11:18;;;;;;;;;10.00;8.00;;;;;38.99;100.00;98942.72;6258735;27;97518;-68
2023/08/18 11:14:22;;;;;;;;;11.60;11.00;;;;;39.04;100.00;98941.47;6276173;27;96217;-68
2023/08/18 11:17:25;;;;;;;;;11.00;10.50;;;;;39.10;100.00;98931.38;6277054;27;96256;-68
2023/08/18 11:20:29;;;;;;;;;12.80;11.40;;;;;39.36;100.00;98940.09;6281958;27;96963;-68
2023/08/18 11:23:33;;;;;;;;;11.25;11.00;;;;;39.52;100.00;98936.78;6252623;27;96390;-69
2023/08/18 11:26:39;;;;;;;;;12.00;11.00;;;;;39.59;100.00;98933.06;6272158;27;96471;-68
2023/08/18 11:29:42;;;;;;;;;11.20;10.20;;;;;39.67;100.00;98935.44;6290908;27;96416;-68
2023/08/18 11:32:47;;;;;;;;;10.60;10.20;;;;;39.72;100.00;98937.03;6280641;27;96416;-68
2023/08/18 11:35:51;;;;;;;;;9.00;9.00;;;;;39.75;100.00;98937.00;6265185;27;96535;-68
2023/08/18 11:39:01;;;;;;;;;13.50;11.00;;;;;39.59;100.00;98938.72;6306029;27;96339;-68
2023/08/18 11:42:05;;;;;;;;;9.60;9.00;;;;;39.26;100.00;98938.13;6263505;27;96931;-68
2023/08/18 11:45:10;;;;;;;;;11.60;10.20;;;;;38.91;100.00;98939.13;6289769;27;96370;-69
2023/08/18 11:48:14;;;;;;;;;11.00;10.60;;;;;38.85;100.00;98925.84;6269208;27;97595;-69
2023/08/18 11:51:17;;;;;;;;;12.00;11.00;;;;;38.63;100.00;98927.13;6228474;27;96753;-69
2023/08/18 11:54:22;;;;;;;;;11.00;11.00;;;;;38.41;100.00;98915.91;6240397;27;98476;-68
2023/08/18 11:57:28;;;;;;;;;10.20;10.20;;;;;38.37;100.00;98923.56;6277401;27;96995;-68
2023/08/18 12:00:34;;;;;;;;;11.00;10.75;;;;;38.33;100.00;98908.69;6289991;27;96472;-68
2023/08/18 12:03:38;;;;;;;;;11.00;11.00;;;;;38.41;100.00;98915.13;6274278;27;96354;-68
2023/08/18 12:06:43;;;;;;;;;11.00;11.00;;;;;38.31;100.00;98911.13;6271102;27;96455;-68
2023/08/18 12:09:47;;;;;;;;;12.00;11.00;;;;;38.51;100.00;98905.84;6270527;27;96401;-69
2023/08/18 12:12:52;;;;;;;;;12.60;11.60;;;;;38.51;100.00;98903.03;6264134;27;96954;-68
2023/08/18 12:15:55;;;;;;;;;12.00;11.60;;;;;38.52;100.00;98904.63;6252778;27;99164;-68
2023/08/18 12:18:58;;;;;;;;;12.00;11.40;;;;;38.63;100.00;98915.84;6273143;27;97103;-69
2023/08/18 12:22:01;;;;;;;;;10.40;10.40;;;;;38.96;100.00;98904.84;6246285;27;96857;-68
2023/08/18 12:25:07;;;;;;;;;12.00;12.00;;;;;39.12;100.00;98901.53;6259136;27;96740;-68
2023/08/18 12:28:10;;;;;;;;;12.00;12.00;;;;;39.31;100.00;98919.94;6247321;27;97326;-68
2023/08/18 12:31:14;;;;;;;;;10.00;9.80;;;;;39.53;100.00;98915.81;6276721;27;96278;-68
2023/08/18 12:34:17;;;;;;;;;11.00;10.00;;;;;39.32;100.00;98908.31;6280519;27;96998;-69
2023/08/18 12:37:21;;;;;;;;;10.00;10.00;;;;;39.43;100.00;98905.41;6261989;27;96383;-68
2023/08/18 12:40:25;;;;;;;;;13.00;12.00;;;;;39.61;100.00;98908.88;6266117;27;96849;-68
2023/08/18 12:43:29;;;;;;;;;11.50;11.00;;;;;39.88;100.00;98905.47;6255410;27;98948;-68
2023/08/18 12:46:32;;;;;;;;;10.20;10.20;;;;;39.62;100.00;98904.03;6279259;27;96651;-68
2023/08/18 12:49:36;;;;;;;;;12.00;10.00;;;;;38.94;100.00;98889.59;6277708;27;96455;-68
2023/08/18 12:52:39;;;;;;;;;12.00;11.40;;;;;38.73;100.00;98900.91;6271289;27;96401;-68
2023/08/18 12:55:44;;;;;;;;;12.00;11.00;;;;;38.47;100.00;98886.13;6269022;27;98511;-68
2023/08/18 12:58:47;;;;;;;;;11.00;10.00;;;;;38.43;100.00;98882.50;6251772;27;96707;-68
2023/08/18 13:01:51;;;;;;;;;10.00;9.60;;;;;38.77;100.00;98879.16;6234267;27;99253;-69
2023/08/18 13:04:54;;;;;;;;;8.00;8.00;;;;;39.06;99.24;98891.91;6253181;27;96420;-68
2023/08/18 13:07:57;;;;;;;;;8.00;7.20;;;;;38.93;96.87;98893.59;6252060;27;96385;-68
2023/08/18 13:11:02;;;;;;;;;9.00;8.00;;;;;38.68;97.17;98893.69;6269849;27;96729;-69
2023/08/18 13:14:06;;;;;;;;;8.00;8.00;;;;;38.56;94.86;98889.31;6288141;27;96925;-68
2023/08/18 13:17:09;;;;;;;;;10.40;10.00;;;;;38.39;96.88;98890.16;6249215;27;96881;-68
2023/08/18 13:20:14;;;;;;;;;8.00;8.00;;;;;38.26;95.06;98902.28;6281561;27;96338;-69
2023/08/18 13:23:17;;;;;;;;;10.00;9.50;;;;;37.84;98.63;98903.09;6257594;27;96334;-68
2023/08/18 13:26:21;;;;;;;;;8.50;7.00;;;;;37.45;100.00;98895.44;6256696;27;96810;-68
2023/08/18 13:29:25;;;;;;;;;11.00;10.00;;;;;36.99;100.00;98895.34;6242465;27;96826;-68
2023/08/18 13:32:28;;;;;;;;;10.00;10.00;;;;;36.48;100.00;98887.91;6266963;27;96476;-68
2023/08/18 13:35:31;;;;;;;;;10.00;10.00;;;;;36.10;100.00;98893.28;6273344;27;96382;-68
2023/08/18 13:38:35;;;;;;;;;10.00;8.50;;;;;35.74;100.00;98887.44;6249125;27;96684;-68
2023/08/18 13:41:39;;;;;;;;;9.40;9.20;;;;;35.56;100.00;98892.06;6236574;27;98732;-69
2023/08/18 13:44:42;;;;;;;;;10.00;9.60;;;;;35.27;100.00;98888.19;6259562;27;98492;-69
2023/08/18 13:47:45;;;;;;;;;10.00;9.00;;;;;34.98;100.00;98880.66;6261696;27;96633;-68
2023/08/18 13:50:49;;;;;;;;;9.00;9.00;;;;;34.71;100.00;98880.75;6259381;27;98960;-68
2023/08/18 13:53:52;;;;;;;;;10.00;9.00;;;;;34.52;100.00;98871.69;6277381;27;96992;-68
2023/08/18 13:56:57;;;;;;;;;11.00;10.00;;;;;34.31;100.00;98878.63;6264715;27;98709;-68
2023/08/18 14:00:00;;;;;;;;;10.00;9.80;;;;;34.14;100.00;98883.94;6285354;27;96642;-68
2023/08/18 14:03:13;;;;;;;;;11.00;11.00;;;;;33.91;100.00;98889.63;6287564;27;96413;-68